sensor_id;sensor_type;location;lat;lon;timestamp;temperature;humidity
40600;DHT22;26309;50.924;4.754;2023-04-24T00:00:16;10.80;99.90
40600;DHT22;26309;50.924;4.754;2023-04-24T00:02:44;10.70;99.90
40600;DHT22;26309;50.924;4.754;2023-04-24T00:05:17;10.70;99.90
40600;DHT22;26309;50.924;4.754;2023-04-24T00:07:44;10.80;99.90
40600;DHT22;26309;50.924;4.754;2023-04-24T00:10:11;10.70;99.90
40600;DHT22;26309;50.924;4.754;2023-04-24T00:12:38;10.80;99.90
40600;DHT22;26309;50.924;4.754;2023-04-24T00:15:05;10.70;99.90
40600;DHT22;26309;50.924;4.754;2023-04-24T00:17:31;10.70;99.90
40600;DHT22;26309;50.924;4.754;2023-04-24T00:19:57;10.60;99.90
40600;DHT22;26309;50.924;4.754;2023-04-24T00:22:28;10.50;99.90
40600;DHT22;26309;50.924;4.754;2023-04-24T00:24:55;10.40;99.90
40600;DHT22;26309;50.924;4.754;2023-04-24T00:27:21;10.50;99.90
40600;DHT22;26309;50.924;4.754;2023-04-24T00:29:46;10.60;99.90
40600;DHT22;26309;50.924;4.754;2023-04-24T00:32:13;10.60;99.90
40600;DHT22;26309;50.924;4.754;2023-04-24T00:34:39;10.70;99.90
40600;DHT22;26309;50.924;4.754;2023-04-24T00:37:17;10.60;99.90
40600;DHT22;26309;50.924;4.754;2023-04-24T00:39:43;10.70;99.90
40600;DHT22;26309;50.924;4.754;2023-04-24T00:42:09;10.70;99.90
40600;DHT22;26309;50.924;4.754;2023-04-24T00:44:43;10.70;99.90
40600;DHT22;26309;50.924;4.754;2023-04-24T00:47:09;10.80;99.90
40600;DHT22;26309;50.924;4.754;2023-04-24T00:49:36;10.80;99.90
40600;DHT22;26309;50.924;4.754;2023-04-24T00:52:02;10.80;99.90
40600;DHT22;26309;50.924;4.754;2023-04-24T00:54:33;10.70;99.90
40600;DHT22;26309;50.924;4.754;2023-04-24T00:56:59;10.60;99.90
40600;DHT22;26309;50.924;4.754;2023-04-24T00:59:26;10.60;99.90
40600;DHT22;26309;50.924;4.754;2023-04-24T01:01:51;10.50;99.90
40600;DHT22;26309;50.924;4.754;2023-04-24T01:04:18;10.50;99.90
40600;DHT22;26309;50.924;4.754;2023-04-24T01:06:44;10.40;99.90
40600;DHT22;26309;50.924;4.754;2023-04-24T01:09:11;10.40;99.90
40600;DHT22;26309;50.924;4.754;2023-04-24T01:11:37;10.30;99.90
40600;DHT22;26309;50.924;4.754;2023-04-24T01:14:04;10.30;99.90
40600;DHT22;26309;50.924;4.754;2023-04-24T01:16:30;10.30;99.90
40600;DHT22;26309;50.924;4.754;2023-04-24T01:18:55;10.40;99.90
40600;DHT22;26309;50.924;4.754;2023-04-24T01:21:24;10.40;99.90
40600;DHT22;26309;50.924;4.754;2023-04-24T01:23:50;10.40;99.90
40600;DHT22;26309;50.924;4.754;2023-04-24T01:26:17;10.60;99.90
40600;DHT22;26309;50.924;4.754;2023-04-24T01:28:46;10.50;99.90
40600;DHT22;26309;50.924;4.754;2023-04-24T01:31:12;10.50;99.90
40600;DHT22;26309;50.924;4.754;2023-04-24T01:33:38;10.50;99.90
40600;DHT22;26309;50.924;4.754;2023-04-24T01:36:04;10.50;99.90
40600;DHT22;26309;50.924;4.754;2023-04-24T01:38:30;10.50;99.90
40600;DHT22;26309;50.924;4.754;2023-04-24T01:40:56;10.60;99.90
40600;DHT22;26309;50.924;4.754;2023-04-24T01:43:22;10.80;99.90
40600;DHT22;26309;50.924;4.754;2023-04-24T01:45:48;10.80;99.90
40600;DHT22;26309;50.924;4.754;2023-04-24T01:48:13;10.70;99.90
40600;DHT22;26309;50.924;4.754;2023-04-24T01:50:39;10.60;99.90
40600;DHT22;26309;50.924;4.754;2023-04-24T01:53:05;10.50;99.90
40600;DHT22;26309;50.924;4.754;2023-04-24T01:55:31;10.60;99.90
40600;DHT22;26309;50.924;4.754;2023-04-24T01:57:58;10.60;99.90
40600;DHT22;26309;50.924;4.754;2023-04-24T02:00:25;10.40;99.90
40600;DHT22;26309;50.924;4.754;2023-04-24T02:02:51;10.30;99.90
40600;DHT22;26309;50.924;4.754;2023-04-24T02:05:17;10.30;99.90
40600;DHT22;26309;50.924;4.754;2023-04-24T02:07:43;10.20;99.90
40600;DHT22;26309;50.924;4.754;2023-04-24T02:10:09;10.20;99.90
40600;DHT22;26309;50.924;4.754;2023-04-24T02:12:36;10.20;99.90
40600;DHT22;26309;50.924;4.754;2023-04-24T02:15:25;10.30;99.90
40600;DHT22;26309;50.924;4.754;2023-04-24T02:17:51;10.20;99.90
40600;DHT22;26309;50.924;4.754;2023-04-24T02:20:17;10.10;99.90
40600;DHT22;26309;50.924;4.754;2023-04-24T02:22:43;10.20;99.90
40600;DHT22;26309;50.924;4.754;2023-04-24T02:25:09;10.20;99.90
40600;DHT22;26309;50.924;4.754;2023-04-24T02:27:34;10.30;99.90
40600;DHT22;26309;50.924;4.754;2023-04-24T02:30:00;10.10;99.90
40600;DHT22;26309;50.924;4.754;2023-04-24T02:32:26;10.10;99.90
40600;DHT22;26309;50.924;4.754;2023-04-24T02:34:52;10.00;99.90
40600;DHT22;26309;50.924;4.754;2023-04-24T02:37:18;10.00;99.90
40600;DHT22;26309;50.924;4.754;2023-04-24T02:39:44;10.10;99.90
40600;DHT22;26309;50.924;4.754;2023-04-24T02:42:10;10.00;99.90
40600;DHT22;26309;50.924;4.754;2023-04-24T02:44:35;9.90;99.90
40600;DHT22;26309;50.924;4.754;2023-04-24T02:47:01;9.90;99.90
40600;DHT22;26309;50.924;4.754;2023-04-24T02:49:27;9.80;99.90
40600;DHT22;26309;50.924;4.754;2023-04-24T02:51:53;9.70;99.90
40600;DHT22;26309;50.924;4.754;2023-04-24T02:54:19;9.60;99.90
40600;DHT22;26309;50.924;4.754;2023-04-24T02:56:45;9.70;99.90
40600;DHT22;26309;50.924;4.754;2023-04-24T02:59:11;9.80;99.90
40600;DHT22;26309;50.924;4.754;2023-04-24T03:01:36;9.80;99.90
40600;DHT22;26309;50.924;4.754;2023-04-24T03:04:02;9.80;99.90
40600;DHT22;26309;50.924;4.754;2023-04-24T03:06:29;9.90;99.90
40600;DHT22;26309;50.924;4.754;2023-04-24T03:08:56;9.80;99.90
40600;DHT22;26309;50.924;4.754;2023-04-24T03:11:22;9.80;99.90
40600;DHT22;26309;50.924;4.754;2023-04-24T03:13:49;9.70;99.90
40600;DHT22;26309;50.924;4.754;2023-04-24T03:16:15;9.60;99.90
40600;DHT22;26309;50.924;4.754;2023-04-24T03:18:41;9.50;99.90
40600;DHT22;26309;50.924;4.754;2023-04-24T03:21:07;9.50;99.90
40600;DHT22;26309;50.924;4.754;2023-04-24T03:23:33;9.50;99.90
40600;DHT22;26309;50.924;4.754;2023-04-24T03:25:58;9.50;99.90
40600;DHT22;26309;50.924;4.754;2023-04-24T03:28:24;9.50;99.90
40600;DHT22;26309;50.924;4.754;2023-04-24T03:30:50;9.60;99.90
40600;DHT22;26309;50.924;4.754;2023-04-24T03:33:16;9.70;99.90
40600;DHT22;26309;50.924;4.754;2023-04-24T03:35:42;9.60;99.90
40600;DHT22;26309;50.924;4.754;2023-04-24T03:38:08;9.60;99.90
40600;DHT22;26309;50.924;4.754;2023-04-24T03:40:34;9.60;99.90
40600;DHT22;26309;50.924;4.754;2023-04-24T03:43:00;9.60;99.90
40600;DHT22;26309;50.924;4.754;2023-04-24T03:45:25;9.60;99.90
40600;DHT22;26309;50.924;4.754;2023-04-24T03:47:51;9.60;99.90
40600;DHT22;26309;50.924;4.754;2023-04-24T03:50:17;9.60;99.90
40600;DHT22;26309;50.924;4.754;2023-04-24T03:52:43;9.60;99.90
40600;DHT22;26309;50.924;4.754;2023-04-24T03:55:13;9.50;99.90
40600;DHT22;26309;50.924;4.754;2023-04-24T03:57:42;9.40;99.90
40600;DHT22;26309;50.924;4.754;2023-04-24T04:00:08;9.30;99.90
40600;DHT22;26309;50.924;4.754;2023-04-24T04:02:34;9.30;99.90
40600;DHT22;26309;50.924;4.754;2023-04-24T04:05:00;9.30;99.90
40600;DHT22;26309;50.924;4.754;2023-04-24T04:07:26;9.40;99.90
40600;DHT22;26309;50.924;4.754;2023-04-24T04:09:52;9.40;99.90
40600;DHT22;26309;50.924;4.754;2023-04-24T04:12:18;9.50;99.90
40600;DHT22;26309;50.924;4.754;2023-04-24T04:14:43;9.40;99.90
40600;DHT22;26309;50.924;4.754;2023-04-24T04:17:12;9.40;99.90
40600;DHT22;26309;50.924;4.754;2023-04-24T04:19:38;9.50;99.90
40600;DHT22;26309;50.924;4.754;2023-04-24T04:22:04;9.40;99.90
40600;DHT22;26309;50.924;4.754;2023-04-24T04:24:30;9.40;99.90
40600;DHT22;26309;50.924;4.754;2023-04-24T04:26:56;9.40;99.90
40600;DHT22;26309;50.924;4.754;2023-04-24T04:29:23;9.30;99.90
40600;DHT22;26309;50.924;4.754;2023-04-24T04:31:51;9.40;99.90
40600;DHT22;26309;50.924;4.754;2023-04-24T04:34:17;9.40;99.90
40600;DHT22;26309;50.924;4.754;2023-04-24T04:36:43;9.30;99.90
40600;DHT22;26309;50.924;4.754;2023-04-24T04:39:09;9.20;99.90
40600;DHT22;26309;50.924;4.754;2023-04-24T04:41:35;9.20;99.90
40600;DHT22;26309;50.924;4.754;2023-04-24T04:44:01;9.30;99.90
40600;DHT22;26309;50.924;4.754;2023-04-24T04:46:30;9.30;99.90
40600;DHT22;26309;50.924;4.754;2023-04-24T04:48:58;9.40;99.90
40600;DHT22;26309;50.924;4.754;2023-04-24T04:51:25;9.40;99.90
40600;DHT22;26309;50.924;4.754;2023-04-24T04:53:50;9.30;99.90
40600;DHT22;26309;50.924;4.754;2023-04-24T04:56:16;9.10;99.90
40600;DHT22;26309;50.924;4.754;2023-04-24T04:58:42;9.00;99.90
40600;DHT22;26309;50.924;4.754;2023-04-24T05:01:08;9.00;99.90
40600;DHT22;26309;50.924;4.754;2023-04-24T05:03:37;9.10;99.90
40600;DHT22;26309;50.924;4.754;2023-04-24T05:06:03;9.00;99.90
40600;DHT22;26309;50.924;4.754;2023-04-24T05:08:29;9.00;99.90
40600;DHT22;26309;50.924;4.754;2023-04-24T05:10:55;9.00;99.90
40600;DHT22;26309;50.924;4.754;2023-04-24T05:13:21;9.00;99.90
40600;DHT22;26309;50.924;4.754;2023-04-24T05:15:50;8.90;99.90
40600;DHT22;26309;50.924;4.754;2023-04-24T05:18:19;8.90;99.90
40600;DHT22;26309;50.924;4.754;2023-04-24T05:20:45;8.90;99.90
40600;DHT22;26309;50.924;4.754;2023-04-24T05:23:11;8.90;99.90
40600;DHT22;26309;50.924;4.754;2023-04-24T05:25:37;8.80;99.90
40600;DHT22;26309;50.924;4.754;2023-04-24T05:28:04;8.70;99.90
40600;DHT22;26309;50.924;4.754;2023-04-24T05:30:31;8.70;99.90
40600;DHT22;26309;50.924;4.754;2023-04-24T05:32:57;8.80;99.90
40600;DHT22;26309;50.924;4.754;2023-04-24T05:35:22;8.80;99.90
40600;DHT22;26309;50.924;4.754;2023-04-24T05:37:48;8.80;99.90
40600;DHT22;26309;50.924;4.754;2023-04-24T05:40:14;8.80;99.90
40600;DHT22;26309;50.924;4.754;2023-04-24T05:42:40;8.80;99.90
40600;DHT22;26309;50.924;4.754;2023-04-24T05:45:06;8.70;99.90
40600;DHT22;26309;50.924;4.754;2023-04-24T05:47:32;8.70;99.90
40600;DHT22;26309;50.924;4.754;2023-04-24T05:49:58;8.60;99.90
40600;DHT22;26309;50.924;4.754;2023-04-24T05:52:24;8.70;99.90
40600;DHT22;26309;50.924;4.754;2023-04-24T05:54:50;8.80;99.90
40600;DHT22;26309;50.924;4.754;2023-04-24T05:57:17;8.90;99.90
40600;DHT22;26309;50.924;4.754;2023-04-24T05:59:43;8.70;99.90
40600;DHT22;26309;50.924;4.754;2023-04-24T06:02:09;8.60;99.90
40600;DHT22;26309;50.924;4.754;2023-04-24T06:04:35;8.60;99.90
40600;DHT22;26309;50.924;4.754;2023-04-24T06:07:01;8.60;99.90
40600;DHT22;26309;50.924;4.754;2023-04-24T06:09:27;8.60;99.90
40600;DHT22;26309;50.924;4.754;2023-04-24T06:11:54;8.50;99.90
40600;DHT22;26309;50.924;4.754;2023-04-24T06:14:20;8.60;99.90
40600;DHT22;26309;50.924;4.754;2023-04-24T06:16:46;8.70;99.90
40600;DHT22;26309;50.924;4.754;2023-04-24T06:19:12;8.80;99.90
40600;DHT22;26309;50.924;4.754;2023-04-24T06:21:38;8.80;99.90
40600;DHT22;26309;50.924;4.754;2023-04-24T06:24:04;8.70;99.90
40600;DHT22;26309;50.924;4.754;2023-04-24T06:26:30;8.70;99.90
40600;DHT22;26309;50.924;4.754;2023-04-24T06:28:56;8.70;99.90
40600;DHT22;26309;50.924;4.754;2023-04-24T06:31:24;8.80;99.90
40600;DHT22;26309;50.924;4.754;2023-04-24T06:33:50;8.90;99.90
40600;DHT22;26309;50.924;4.754;2023-04-24T06:36:17;9.00;99.90
40600;DHT22;26309;50.924;4.754;2023-04-24T06:38:42;8.80;99.90
40600;DHT22;26309;50.924;4.754;2023-04-24T06:41:10;8.90;99.90
40600;DHT22;26309;50.924;4.754;2023-04-24T06:43:36;8.70;99.90
40600;DHT22;26309;50.924;4.754;2023-04-24T06:46:01;8.80;99.90
40600;DHT22;26309;50.924;4.754;2023-04-24T06:48:29;8.80;99.90
40600;DHT22;26309;50.924;4.754;2023-04-24T06:50:55;8.70;99.90
40600;DHT22;26309;50.924;4.754;2023-04-24T06:53:20;8.70;99.90
40600;DHT22;26309;50.924;4.754;2023-04-24T06:55:46;8.70;99.90
40600;DHT22;26309;50.924;4.754;2023-04-24T06:58:12;8.70;99.90
40600;DHT22;26309;50.924;4.754;2023-04-24T07:00:39;8.80;99.90
40600;DHT22;26309;50.924;4.754;2023-04-24T07:03:05;8.80;99.90
40600;DHT22;26309;50.924;4.754;2023-04-24T07:05:31;8.80;99.90
40600;DHT22;26309;50.924;4.754;2023-04-24T07:07:59;8.90;99.90
40600;DHT22;26309;50.924;4.754;2023-04-24T07:10:26;9.00;99.90
40600;DHT22;26309;50.924;4.754;2023-04-24T07:12:54;9.10;99.90
40600;DHT22;26309;50.924;4.754;2023-04-24T07:15:21;8.90;99.90
40600;DHT22;26309;50.924;4.754;2023-04-24T07:17:47;8.80;99.90
40600;DHT22;26309;50.924;4.754;2023-04-24T07:20:13;8.90;99.90
40600;DHT22;26309;50.924;4.754;2023-04-24T07:22:40;9.00;99.90
40600;DHT22;26309;50.924;4.754;2023-04-24T07:25:07;9.10;99.90
40600;DHT22;26309;50.924;4.754;2023-04-24T07:27:34;9.00;99.90
40600;DHT22;26309;50.924;4.754;2023-04-24T07:30:00;9.10;99.90
40600;DHT22;26309;50.924;4.754;2023-04-24T07:32:26;9.10;99.90
40600;DHT22;26309;50.924;4.754;2023-04-24T07:34:52;8.90;99.90
40600;DHT22;26309;50.924;4.754;2023-04-24T07:37:18;8.90;99.90
40600;DHT22;26309;50.924;4.754;2023-04-24T07:39:47;8.90;99.90
40600;DHT22;26309;50.924;4.754;2023-04-24T07:42:13;9.00;99.90
40600;DHT22;26309;50.924;4.754;2023-04-24T07:44:40;9.10;99.90
40600;DHT22;26309;50.924;4.754;2023-04-24T07:47:06;9.20;99.90
40600;DHT22;26309;50.924;4.754;2023-04-24T07:49:32;9.10;99.90
40600;DHT22;26309;50.924;4.754;2023-04-24T07:52:00;9.00;99.90
40600;DHT22;26309;50.924;4.754;2023-04-24T07:54:28;8.90;99.90
40600;DHT22;26309;50.924;4.754;2023-04-24T07:56:54;8.90;99.90
40600;DHT22;26309;50.924;4.754;2023-04-24T07:59:20;9.00;99.90
40600;DHT22;26309;50.924;4.754;2023-04-24T08:01:50;8.90;99.90
40600;DHT22;26309;50.924;4.754;2023-04-24T08:04:16;8.80;99.90
40600;DHT22;26309;50.924;4.754;2023-04-24T08:06:44;8.90;99.90
40600;DHT22;26309;50.924;4.754;2023-04-24T08:09:10;8.90;99.90
40600;DHT22;26309;50.924;4.754;2023-04-24T08:11:36;8.90;99.90
40600;DHT22;26309;50.924;4.754;2023-04-24T08:14:02;8.90;99.90
40600;DHT22;26309;50.924;4.754;2023-04-24T08:16:28;8.70;99.90
40600;DHT22;26309;50.924;4.754;2023-04-24T08:18:54;8.70;99.90
40600;DHT22;26309;50.924;4.754;2023-04-24T08:21:20;8.60;99.90
40600;DHT22;26309;50.924;4.754;2023-04-24T08:23:46;8.70;99.90
40600;DHT22;26309;50.924;4.754;2023-04-24T08:26:12;8.90;99.90
40600;DHT22;26309;50.924;4.754;2023-04-24T08:28:38;9.10;99.90
40600;DHT22;26309;50.924;4.754;2023-04-24T08:31:04;9.20;99.90
40600;DHT22;26309;50.924;4.754;2023-04-24T08:33:30;9.20;99.90
40600;DHT22;26309;50.924;4.754;2023-04-24T08:36:06;9.30;99.90
40600;DHT22;26309;50.924;4.754;2023-04-24T08:38:32;9.50;99.90
40600;DHT22;26309;50.924;4.754;2023-04-24T08:41:00;9.60;99.90
40600;DHT22;26309;50.924;4.754;2023-04-24T08:43:27;10.00;99.90
40600;DHT22;26309;50.924;4.754;2023-04-24T08:45:55;10.00;99.90
40600;DHT22;26309;50.924;4.754;2023-04-24T08:48:22;9.90;99.90
40600;DHT22;26309;50.924;4.754;2023-04-24T08:50:50;9.80;99.90
40600;DHT22;26309;50.924;4.754;2023-04-24T08:53:17;9.80;99.90
40600;DHT22;26309;50.924;4.754;2023-04-24T08:55:47;10.10;99.90
40600;DHT22;26309;50.924;4.754;2023-04-24T08:58:15;10.40;99.90
40600;DHT22;26309;50.924;4.754;2023-04-24T09:00:42;10.70;99.90
40600;DHT22;26309;50.924;4.754;2023-04-24T09:03:16;11.00;99.90
40600;DHT22;26309;50.924;4.754;2023-04-24T09:05:43;11.10;99.90
40600;DHT22;26309;50.924;4.754;2023-04-24T09:08:13;11.30;99.90
40600;DHT22;26309;50.924;4.754;2023-04-24T09:10:40;11.10;99.90
40600;DHT22;26309;50.924;4.754;2023-04-24T09:13:07;10.90;99.90
40600;DHT22;26309;50.924;4.754;2023-04-24T09:15:35;10.70;99.90
40600;DHT22;26309;50.924;4.754;2023-04-24T09:18:01;10.60;99.90
40600;DHT22;26309;50.924;4.754;2023-04-24T09:20:28;10.40;99.90
40600;DHT22;26309;50.924;4.754;2023-04-24T09:22:54;10.30;99.90
40600;DHT22;26309;50.924;4.754;2023-04-24T09:25:31;10.10;99.90
40600;DHT22;26309;50.924;4.754;2023-04-24T09:28:01;9.90;99.90
40600;DHT22;26309;50.924;4.754;2023-04-24T09:30:28;9.90;99.90
40600;DHT22;26309;50.924;4.754;2023-04-24T09:33:13;10.00;99.90
40600;DHT22;26309;50.924;4.754;2023-04-24T09:35:50;10.00;99.90
40600;DHT22;26309;50.924;4.754;2023-04-24T09:38:30;10.20;99.90
40600;DHT22;26309;50.924;4.754;2023-04-24T09:40:59;10.40;99.90
40600;DHT22;26309;50.924;4.754;2023-04-24T09:43:26;10.70;99.90
40600;DHT22;26309;50.924;4.754;2023-04-24T09:45:56;11.00;99.90
40600;DHT22;26309;50.924;4.754;2023-04-24T09:48:33;11.20;99.90
40600;DHT22;26309;50.924;4.754;2023-04-24T09:51:01;11.10;99.90
40600;DHT22;26309;50.924;4.754;2023-04-24T09:53:27;10.70;99.90
40600;DHT22;26309;50.924;4.754;2023-04-24T09:55:53;10.50;99.90
40600;DHT22;26309;50.924;4.754;2023-04-24T09:58:26;10.40;99.90
40600;DHT22;26309;50.924;4.754;2023-04-24T10:00:58;10.60;99.90
40600;DHT22;26309;50.924;4.754;2023-04-24T10:03:25;10.90;99.90
40600;DHT22;26309;50.924;4.754;2023-04-24T10:05:59;11.20;99.90
40600;DHT22;26309;50.924;4.754;2023-04-24T10:08:25;11.50;99.90
40600;DHT22;26309;50.924;4.754;2023-04-24T10:10:52;11.70;99.90
40600;DHT22;26309;50.924;4.754;2023-04-24T10:13:18;11.60;99.90
40600;DHT22;26309;50.924;4.754;2023-04-24T10:15:44;11.50;99.90
40600;DHT22;26309;50.924;4.754;2023-04-24T10:18:12;11.70;99.90
40600;DHT22;26309;50.924;4.754;2023-04-24T10:20:39;11.80;99.90
40600;DHT22;26309;50.924;4.754;2023-04-24T10:23:06;11.80;99.90
40600;DHT22;26309;50.924;4.754;2023-04-24T10:25:34;11.90;99.90
40600;DHT22;26309;50.924;4.754;2023-04-24T10:28:01;12.00;99.90
40600;DHT22;26309;50.924;4.754;2023-04-24T10:30:32;11.70;99.90
40600;DHT22;26309;50.924;4.754;2023-04-24T10:33:03;11.80;99.90
40600;DHT22;26309;50.924;4.754;2023-04-24T10:35:38;11.90;99.90
40600;DHT22;26309;50.924;4.754;2023-04-24T10:38:16;11.90;99.90
40600;DHT22;26309;50.924;4.754;2023-04-24T10:40:44;11.80;99.90
40600;DHT22;26309;50.924;4.754;2023-04-24T10:43:10;12.00;99.90
40600;DHT22;26309;50.924;4.754;2023-04-24T10:45:38;11.80;99.90
40600;DHT22;26309;50.924;4.754;2023-04-24T10:48:06;11.80;99.90
40600;DHT22;26309;50.924;4.754;2023-04-24T10:50:52;11.80;99.90
40600;DHT22;26309;50.924;4.754;2023-04-24T10:53:21;12.00;99.90
40600;DHT22;26309;50.924;4.754;2023-04-24T10:55:58;12.30;99.90
40600;DHT22;26309;50.924;4.754;2023-04-24T10:58:39;12.30;99.90
40600;DHT22;26309;50.924;4.754;2023-04-24T11:01:06;12.10;99.90
40600;DHT22;26309;50.924;4.754;2023-04-24T11:03:34;12.00;99.90
40600;DHT22;26309;50.924;4.754;2023-04-24T11:06:08;12.30;99.90
40600;DHT22;26309;50.924;4.754;2023-04-24T11:08:42;12.70;99.90
40600;DHT22;26309;50.924;4.754;2023-04-24T11:18:51;12.30;99.90
40600;DHT22;26309;50.924;4.754;2023-04-24T11:21:20;12.60;99.90
40600;DHT22;26309;50.924;4.754;2023-04-24T11:23:46;12.60;99.90
40600;DHT22;26309;50.924;4.754;2023-04-24T11:26:17;12.70;99.90
40600;DHT22;26309;50.924;4.754;2023-04-24T11:28:50;13.10;99.90
40600;DHT22;26309;50.924;4.754;2023-04-24T11:31:39;13.50;99.90
40600;DHT22;26309;50.924;4.754;2023-04-24T11:34:13;13.60;99.90
40600;DHT22;26309;50.924;4.754;2023-04-24T11:36:40;13.30;99.90
40600;DHT22;26309;50.924;4.754;2023-04-24T11:39:08;12.70;99.90
40600;DHT22;26309;50.924;4.754;2023-04-24T11:41:35;12.70;99.90
40600;DHT22;26309;50.924;4.754;2023-04-24T11:44:01;12.90;99.90
40600;DHT22;26309;50.924;4.754;2023-04-24T11:46:31;13.00;99.90
40600;DHT22;26309;50.924;4.754;2023-04-24T11:49:00;13.00;99.90
40600;DHT22;26309;50.924;4.754;2023-04-24T11:51:27;13.10;99.90
40600;DHT22;26309;50.924;4.754;2023-04-24T11:53:54;13.10;99.90
40600;DHT22;26309;50.924;4.754;2023-04-24T11:56:24;13.10;99.90
40600;DHT22;26309;50.924;4.754;2023-04-24T11:58:52;12.90;99.90
40600;DHT22;26309;50.924;4.754;2023-04-24T12:01:20;12.90;99.90
40600;DHT22;26309;50.924;4.754;2023-04-24T12:03:59;12.90;99.90
40600;DHT22;26309;50.924;4.754;2023-04-24T12:06:26;13.10;99.90
40600;DHT22;26309;50.924;4.754;2023-04-24T12:08:52;13.30;99.90
40600;DHT22;26309;50.924;4.754;2023-04-24T12:11:20;13.70;99.90
40600;DHT22;26309;50.924;4.754;2023-04-24T12:13:46;14.10;99.90
40600;DHT22;26309;50.924;4.754;2023-04-24T12:16:12;13.60;99.90
40600;DHT22;26309;50.924;4.754;2023-04-24T12:18:43;13.70;99.90
40600;DHT22;26309;50.924;4.754;2023-04-24T12:21:20;13.60;99.90
40600;DHT22;26309;50.924;4.754;2023-04-24T12:23:46;13.30;99.90
40600;DHT22;26309;50.924;4.754;2023-04-24T12:26:19;13.40;99.90
40600;DHT22;26309;50.924;4.754;2023-04-24T12:28:48;13.50;99.90
40600;DHT22;26309;50.924;4.754;2023-04-24T12:31:15;13.90;99.90
40600;DHT22;26309;50.924;4.754;2023-04-24T12:33:43;13.90;99.90
40600;DHT22;26309;50.924;4.754;2023-04-24T12:36:12;13.40;99.90
40600;DHT22;26309;50.924;4.754;2023-04-24T12:38:38;13.30;99.90
40600;DHT22;26309;50.924;4.754;2023-04-24T12:41:13;13.20;99.90
40600;DHT22;26309;50.924;4.754;2023-04-24T12:43:51;13.10;99.90
40600;DHT22;26309;50.924;4.754;2023-04-24T12:46:18;13.20;99.90
40600;DHT22;26309;50.924;4.754;2023-04-24T12:48:43;13.20;99.90
40600;DHT22;26309;50.924;4.754;2023-04-24T12:51:09;13.30;99.90
40600;DHT22;26309;50.924;4.754;2023-04-24T12:53:36;13.20;99.90
40600;DHT22;26309;50.924;4.754;2023-04-24T12:56:02;13.10;99.90
40600;DHT22;26309;50.924;4.754;2023-04-24T12:58:28;12.90;99.90
40600;DHT22;26309;50.924;4.754;2023-04-24T13:00:54;13.20;99.90
40600;DHT22;26309;50.924;4.754;2023-04-24T13:03:20;13.20;99.90
40600;DHT22;26309;50.924;4.754;2023-04-24T13:05:48;13.30;99.90
40600;DHT22;26309;50.924;4.754;2023-04-24T13:08:13;13.30;99.90
40600;DHT22;26309;50.924;4.754;2023-04-24T13:10:39;13.10;99.90
40600;DHT22;26309;50.924;4.754;2023-04-24T13:13:06;13.30;99.90
40600;DHT22;26309;50.924;4.754;2023-04-24T13:15:32;13.60;99.90
40600;DHT22;26309;50.924;4.754;2023-04-24T13:17:58;13.50;99.90
40600;DHT22;26309;50.924;4.754;2023-04-24T13:20:24;13.90;99.90
40600;DHT22;26309;50.924;4.754;2023-04-24T13:22:50;14.00;99.90
40600;DHT22;26309;50.924;4.754;2023-04-24T13:25:16;13.80;99.90
40600;DHT22;26309;50.924;4.754;2023-04-24T13:27:43;14.00;99.90
40600;DHT22;26309;50.924;4.754;2023-04-24T13:30:09;14.30;99.90
40600;DHT22;26309;50.924;4.754;2023-04-24T13:32:36;14.70;99.90
40600;DHT22;26309;50.924;4.754;2023-04-24T13:35:02;14.50;99.90
40600;DHT22;26309;50.924;4.754;2023-04-24T13:37:28;14.60;99.90
40600;DHT22;26309;50.924;4.754;2023-04-24T13:39:53;14.50;99.90
40600;DHT22;26309;50.924;4.754;2023-04-24T13:42:19;14.10;99.90
40600;DHT22;26309;50.924;4.754;2023-04-24T13:44:46;13.90;99.90
40600;DHT22;26309;50.924;4.754;2023-04-24T13:47:12;13.90;99.90
40600;DHT22;26309;50.924;4.754;2023-04-24T13:49:37;13.70;99.90
40600;DHT22;26309;50.924;4.754;2023-04-24T13:52:03;13.50;99.90
40600;DHT22;26309;50.924;4.754;2023-04-24T13:54:29;13.60;99.90
40600;DHT22;26309;50.924;4.754;2023-04-24T13:56:57;14.00;99.90
40600;DHT22;26309;50.924;4.754;2023-04-24T13:59:23;14.40;99.90
40600;DHT22;26309;50.924;4.754;2023-04-24T14:01:49;14.50;99.90
40600;DHT22;26309;50.924;4.754;2023-04-24T14:04:15;14.60;99.90
40600;DHT22;26309;50.924;4.754;2023-04-24T14:06:41;14.90;99.90
40600;DHT22;26309;50.924;4.754;2023-04-24T14:09:07;15.20;99.90
40600;DHT22;26309;50.924;4.754;2023-04-24T14:11:34;15.40;99.90
40600;DHT22;26309;50.924;4.754;2023-04-24T14:14:00;15.30;99.90
40600;DHT22;26309;50.924;4.754;2023-04-24T14:16:26;14.80;99.90
40600;DHT22;26309;50.924;4.754;2023-04-24T14:18:52;14.90;99.90
40600;DHT22;26309;50.924;4.754;2023-04-24T14:21:17;14.90;99.90
40600;DHT22;26309;50.924;4.754;2023-04-24T14:23:43;14.90;99.90
40600;DHT22;26309;50.924;4.754;2023-04-24T14:26:09;15.40;99.90
40600;DHT22;26309;50.924;4.754;2023-04-24T14:28:35;15.40;99.90
40600;DHT22;26309;50.924;4.754;2023-04-24T14:31:01;15.40;98.80
40600;DHT22;26309;50.924;4.754;2023-04-24T14:33:27;15.60;99.90
40600;DHT22;26309;50.924;4.754;2023-04-24T14:35:53;16.30;99.90
40600;DHT22;26309;50.924;4.754;2023-04-24T14:38:19;16.80;95.60
40600;DHT22;26309;50.924;4.754;2023-04-24T14:40:45;16.30;95.10
40600;DHT22;26309;50.924;4.754;2023-04-24T14:43:11;16.50;96.50
40600;DHT22;26309;50.924;4.754;2023-04-24T14:45:37;16.70;95.10
40600;DHT22;26309;50.924;4.754;2023-04-24T14:48:03;16.20;96.50
40600;DHT22;26309;50.924;4.754;2023-04-24T14:50:29;15.60;97.80
40600;DHT22;26309;50.924;4.754;2023-04-24T14:52:56;14.90;98.40
40600;DHT22;26309;50.924;4.754;2023-04-24T14:55:23;14.80;98.80
40600;DHT22;26309;50.924;4.754;2023-04-24T14:57:49;14.50;99.40
40600;DHT22;26309;50.924;4.754;2023-04-24T15:00:15;14.20;99.70
40600;DHT22;26309;50.924;4.754;2023-04-24T15:02:42;14.00;99.90
40600;DHT22;26309;50.924;4.754;2023-04-24T15:05:10;14.00;99.90
40600;DHT22;26309;50.924;4.754;2023-04-24T15:07:37;13.80;99.90
40600;DHT22;26309;50.924;4.754;2023-04-24T15:10:03;13.60;99.90
40600;DHT22;26309;50.924;4.754;2023-04-24T15:12:29;13.60;99.90
40600;DHT22;26309;50.924;4.754;2023-04-24T15:14:57;13.30;99.90
40600;DHT22;26309;50.924;4.754;2023-04-24T15:17:23;13.50;99.90
40600;DHT22;26309;50.924;4.754;2023-04-24T15:19:49;13.50;99.90
40600;DHT22;26309;50.924;4.754;2023-04-24T15:22:15;13.60;99.90
40600;DHT22;26309;50.924;4.754;2023-04-24T15:24:41;13.60;99.80
40600;DHT22;26309;50.924;4.754;2023-04-24T15:27:10;13.70;99.90
40600;DHT22;26309;50.924;4.754;2023-04-24T15:29:36;13.80;99.90
40600;DHT22;26309;50.924;4.754;2023-04-24T15:32:02;13.80;99.90
40600;DHT22;26309;50.924;4.754;2023-04-24T15:34:28;13.40;99.70
40600;DHT22;26309;50.924;4.754;2023-04-24T15:36:54;13.50;99.90
40600;DHT22;26309;50.924;4.754;2023-04-24T15:39:24;13.80;99.90
40600;DHT22;26309;50.924;4.754;2023-04-24T15:41:50;14.00;99.90
40600;DHT22;26309;50.924;4.754;2023-04-24T15:44:16;14.00;99.90